createdAt,value
2023-04-17T00:02:26.059Z,15.93
2023-04-17T00:04:54.573Z,13.77
2023-04-17T00:07:22.925Z,12.40
2023-04-17T00:09:51.222Z,17.30
2023-04-17T00:12:20.633Z,15.00
2023-04-17T00:14:48.711Z,11.83
2023-04-17T00:17:16.956Z,12.47
2023-04-17T00:19:45.067Z,17.20
2023-04-17T00:22:13.137Z,18.23
2023-04-17T00:24:41.234Z,19.20
2023-04-17T00:27:10.069Z,10.93
2023-04-17T00:29:39.567Z,11.97
2023-04-17T00:32:07.797Z,14.30
2023-04-17T00:34:36.124Z,17.03
2023-04-17T00:37:04.384Z,14.70
2023-04-17T00:39:32.608Z,11.93
2023-04-17T00:42:00.831Z,15.17
2023-04-17T00:44:29.574Z,14.73
2023-04-17T00:46:59.043Z,13.70
2023-04-17T00:49:28.681Z,14.63
2023-04-17T00:51:57.768Z,15.27
2023-04-17T00:54:27.567Z,16.93
2023-04-17T00:56:57.779Z,17.13
2023-04-17T00:59:27.269Z,15.83
2023-04-17T01:01:55.510Z,16.97
2023-04-17T01:04:25.268Z,16.33
2023-04-17T01:06:54.932Z,13.43
2023-04-17T01:09:23.076Z,16.40
2023-04-17T01:11:51.162Z,14.73
2023-04-17T01:14:19.284Z,19.60
2023-04-17T01:16:47.493Z,18.43
2023-04-17T01:19:16.456Z,15.57
2023-04-17T01:21:46.044Z,17.37
2023-04-17T01:24:15.437Z,17.93
2023-04-17T01:26:43.884Z,12.33
2023-04-17T01:29:12.342Z,14.27
2023-04-17T01:31:40.572Z,11.50
2023-04-17T01:34:08.657Z,15.90
2023-04-17T01:36:36.832Z,15.97
2023-04-17T01:39:05.466Z,15.63
2023-04-17T01:41:34.983Z,14.17
2023-04-17T01:44:03.180Z,18.93
2023-04-17T01:46:31.453Z,14.17
2023-04-17T01:48:59.585Z,12.13
2023-04-17T01:51:28.065Z,13.93
2023-04-17T01:53:56.502Z,17.47
2023-04-17T01:56:24.705Z,14.33
2023-04-17T01:58:54.184Z,16.57
2023-04-17T02:01:22.331Z,14.40
2023-04-17T02:03:50.635Z,15.07
2023-04-17T02:06:18.841Z,16.07
2023-04-17T02:08:46.915Z,14.63
2023-04-17T02:11:15.424Z,16.33
2023-04-17T02:13:43.563Z,13.30
2023-04-17T02:16:13.165Z,13.43
2023-04-17T02:18:42.271Z,20.53
2023-04-17T02:21:10.549Z,15.10
2023-04-17T02:23:38.618Z,18.83
2023-04-17T02:26:06.992Z,15.27
2023-04-17T02:28:35.139Z,16.77
2023-04-17T02:31:03.378Z,15.47
2023-04-17T02:33:33.051Z,17.07
2023-04-17T02:36:01.219Z,12.70
2023-04-17T02:38:30.218Z,17.70
2023-04-17T02:40:58.438Z,16.90
2023-04-17T02:43:26.632Z,13.20
2023-04-17T02:45:54.784Z,13.77
2023-04-17T02:48:22.915Z,13.43
2023-04-17T02:50:52.531Z,10.40
2023-04-17T02:53:20.798Z,14.53
2023-04-17T02:55:48.912Z,12.77
2023-04-17T02:58:17.039Z,16.37
2023-04-17T03:00:45.323Z,12.47
2023-04-17T03:03:13.709Z,9.63
2023-04-17T03:05:42.158Z,9.13
2023-04-17T03:08:11.879Z,10.13
2023-04-17T03:10:40.010Z,9.80
2023-04-17T03:13:10.903Z,9.27
2023-04-17T03:15:39.002Z,9.10
2023-04-17T03:18:07.252Z,8.43
2023-04-17T03:20:35.582Z,14.17
2023-04-17T03:23:03.658Z,10.40
2023-04-17T03:25:33.146Z,7.97
2023-04-17T03:28:01.225Z,9.83
2023-04-17T03:30:29.352Z,10.83
2023-04-17T03:32:57.729Z,7.93
2023-04-17T03:35:26.114Z,11.17
2023-04-17T03:37:54.147Z,11.00
2023-04-17T03:40:22.230Z,10.80
2023-04-17T03:42:51.727Z,16.23
2023-04-17T03:45:19.897Z,12.70
2023-04-17T03:47:48.477Z,10.93
2023-04-17T03:50:16.725Z,11.80
2023-04-17T03:52:44.913Z,14.80
2023-04-17T03:55:12.965Z,13.27
2023-04-17T03:57:41.144Z,15.27
2023-04-17T04:00:12.301Z,12.80
2023-04-17T04:02:40.536Z,10.27
2023-04-17T04:05:09.643Z,9.93
2023-04-17T04:07:37.793Z,16.17
2023-04-17T04:10:06.666Z,9.90
2023-04-17T04:12:34.783Z,11.00
2023-04-17T04:15:02.989Z,12.40
2023-04-17T04:17:32.488Z,14.37
2023-04-17T04:20:00.763Z,10.17
2023-04-17T04:22:29.717Z,11.50
2023-04-17T04:24:58.482Z,8.80
2023-04-17T04:27:27.713Z,11.00
2023-04-17T04:30:00.150Z,13.07
2023-04-17T04:32:28.410Z,11.63
2023-04-17T04:34:58.612Z,12.73
2023-04-17T04:37:30.151Z,13.40
2023-04-17T04:40:02.116Z,13.60
2023-04-17T04:42:30.329Z,14.80
2023-04-17T04:44:58.547Z,17.97
2023-04-17T04:47:26.834Z,14.47
2023-04-17T04:49:58.028Z,15.37
2023-04-17T04:52:27.845Z,14.03
2023-04-17T04:54:55.942Z,13.93
2023-04-17T04:57:25.409Z,13.50
2023-04-17T04:59:53.581Z,14.60
2023-04-17T05:02:22.531Z,12.53
2023-04-17T05:04:53.523Z,18.20
2023-04-17T05:07:21.749Z,14.67
2023-04-17T05:09:51.346Z,19.57
2023-04-17T05:12:19.615Z,16.47
2023-04-17T05:14:48.016Z,19.63
2023-04-17T05:17:16.136Z,24.90
2023-04-17T05:19:44.250Z,21.20
2023-04-17T05:22:12.391Z,28.47
2023-04-17T05:24:40.540Z,43.80
2023-04-17T05:27:10.077Z,28.60
2023-04-17T05:29:38.554Z,27.37
2023-04-17T05:32:06.971Z,25.97
2023-04-17T05:34:35.141Z,25.67
2023-04-17T05:37:03.584Z,23.97
2023-04-17T05:39:31.659Z,28.83
2023-04-17T05:41:59.759Z,34.00
2023-04-17T05:44:29.252Z,26.20
2023-04-17T05:47:00.167Z,25.37
2023-04-17T05:49:28.430Z,27.50
2023-04-17T05:51:56.854Z,26.47
2023-04-17T05:54:25.548Z,31.97
2023-04-17T05:56:55.317Z,26.00
2023-04-17T05:59:24.550Z,21.73
2023-04-17T06:01:54.464Z,22.73
2023-04-17T06:04:22.980Z,24.50
2023-04-17T06:06:51.720Z,21.27
2023-04-17T06:09:19.904Z,21.10
2023-04-17T06:11:48.161Z,20.57
2023-04-17T06:14:16.810Z,18.00
2023-04-17T06:16:45.057Z,23.83
2023-04-17T06:19:15.599Z,23.90
2023-04-17T06:21:43.946Z,19.73
2023-04-17T06:24:12.015Z,18.10
2023-04-17T06:26:40.065Z,23.10
2023-04-17T06:29:09.332Z,19.50
2023-04-17T06:31:37.694Z,24.10
2023-04-17T06:34:05.857Z,23.23
2023-04-17T06:36:35.242Z,20.23
2023-04-17T06:39:04.519Z,23.93
2023-04-17T06:41:32.709Z,23.37
2023-04-17T06:44:00.830Z,23.27
2023-04-17T06:46:28.937Z,23.42
2023-04-17T06:49:00.685Z,21.07
2023-04-17T06:51:29.405Z,15.52
2023-04-17T06:53:59.426Z,17.63
2023-04-17T06:56:28.781Z,16.43
2023-04-17T06:58:58.132Z,17.70
2023-04-17T07:01:28.034Z,14.73
2023-04-17T07:03:56.472Z,15.67
2023-04-17T07:06:25.269Z,16.13
2023-04-17T07:08:55.723Z,16.80
2023-04-17T07:11:25.333Z,17.30
2023-04-17T07:13:53.556Z,14.43
2023-04-17T07:16:23.583Z,13.50
2023-04-17T07:18:51.897Z,15.47
2023-04-17T07:21:20.413Z,14.83
2023-04-17T07:23:51.608Z,17.30
2023-04-17T07:26:19.978Z,15.50
2023-04-17T07:28:51.330Z,14.93
2023-04-17T07:31:22.464Z,16.77
2023-04-17T07:33:50.926Z,14.07
2023-04-17T07:36:19.676Z,14.33
2023-04-17T07:38:47.782Z,9.83
2023-04-17T07:41:16.016Z,18.03
2023-04-17T07:43:44.067Z,15.70
2023-04-17T07:46:13.681Z,16.03
2023-04-17T07:48:41.958Z,17.63
2023-04-17T07:51:10.206Z,13.13
2023-04-17T07:53:38.782Z,15.13
2023-04-17T07:56:07.879Z,11.70
2023-04-17T07:58:36.552Z,13.53
2023-04-17T08:01:05.950Z,15.52
2023-04-17T08:03:35.834Z,18.70
2023-04-17T08:06:04.110Z,13.97
2023-04-17T08:08:32.243Z,15.57
2023-04-17T08:11:00.448Z,13.33
2023-04-17T08:13:31.577Z,16.90
2023-04-17T08:16:00.193Z,16.03
2023-04-17T08:18:28.489Z,16.10
2023-04-17T08:20:58.076Z,14.60
2023-04-17T08:23:26.466Z,12.87
2023-04-17T08:25:55.886Z,14.77
2023-04-17T08:28:24.600Z,15.97
2023-04-17T08:30:52.852Z,15.63
2023-04-17T08:33:22.131Z,14.47
2023-04-17T08:35:50.523Z,15.70
2023-04-17T08:38:20.252Z,12.77
2023-04-17T08:40:52.330Z,14.33
2023-04-17T08:43:21.371Z,16.83
2023-04-17T08:45:54.213Z,17.63
2023-04-17T08:48:23.577Z,16.97
2023-04-17T08:50:53.785Z,26.53
2023-04-17T08:53:23.362Z,17.37
2023-04-17T08:55:51.666Z,22.57
2023-04-17T08:58:22.351Z,15.20
2023-04-17T09:00:50.497Z,15.73
2023-04-17T09:03:19.150Z,17.20
2023-04-17T09:05:48.625Z,16.40
2023-04-17T09:08:20.826Z,17.33
2023-04-17T09:10:52.724Z,15.03
2023-04-17T09:13:24.515Z,14.40
2023-04-17T09:16:09.277Z,15.43
2023-04-17T09:18:38.719Z,18.50
2023-04-17T09:21:08.441Z,14.10
2023-04-17T09:23:49.631Z,15.02
2023-04-17T09:26:20.298Z,16.13
2023-04-17T09:29:09.335Z,16.33
2023-04-17T09:31:39.253Z,16.58
2023-04-17T09:34:08.684Z,18.65
2023-04-17T09:36:38.493Z,17.63
2023-04-17T09:39:17.320Z,18.33
2023-04-17T09:41:46.834Z,21.60
2023-04-17T09:44:26.821Z,15.70
2023-04-17T09:46:55.467Z,15.02
2023-04-17T09:49:33.900Z,15.13
2023-04-17T09:52:02.431Z,16.85
2023-04-17T09:54:32.916Z,15.15
2023-04-17T09:57:03.867Z,16.98
2023-04-17T09:59:32.709Z,13.73
2023-04-17T10:02:02.621Z,14.85
2023-04-17T10:04:31.398Z,14.48
2023-04-17T10:06:59.791Z,14.82
2023-04-17T10:09:28.153Z,15.32
2023-04-17T10:11:57.817Z,14.70
2023-04-17T10:14:29.266Z,16.35
2023-04-17T10:16:57.689Z,16.35
2023-04-17T10:19:31.201Z,15.80
2023-04-17T10:22:30.920Z,18.02
2023-04-17T10:25:22.354Z,14.88
2023-04-17T10:27:55.680Z,14.50
2023-04-17T10:30:26.935Z,15.95
2023-04-17T10:33:23.087Z,15.27
2023-04-17T10:35:51.728Z,14.05
2023-04-17T10:38:32.975Z,17.55
2023-04-17T10:41:05.080Z,18.52
2023-04-17T10:43:33.252Z,20.95
2023-04-17T10:46:07.621Z,19.27
2023-04-17T10:48:38.933Z,19.67
2023-04-17T10:51:41.130Z,21.35
2023-04-17T10:54:10.890Z,24.08
2023-04-17T10:56:40.644Z,22.30
2023-04-17T10:59:10.508Z,22.08
2023-04-17T11:01:58.800Z,25.60
2023-04-17T11:04:29.443Z,23.45
2023-04-17T11:06:57.861Z,23.20
2023-04-17T11:09:28.352Z,21.65
2023-04-17T11:11:59.554Z,22.42
2023-04-17T11:14:27.840Z,23.27
2023-04-17T11:16:59.566Z,23.83
2023-04-17T11:19:27.877Z,22.73
2023-04-17T11:21:58.922Z,21.30
2023-04-17T11:24:27.996Z,22.40
2023-04-17T11:26:57.966Z,22.23
2023-04-17T11:29:26.473Z,28.05
2023-04-17T11:31:56.587Z,20.52
2023-04-17T11:34:27.339Z,23.80
2023-04-17T11:36:57.451Z,20.42
2023-04-17T11:39:26.852Z,23.15
2023-04-17T11:41:57.314Z,19.02
2023-04-17T11:44:26.613Z,20.05
2023-04-17T11:46:56.208Z,20.13
2023-04-17T11:49:29.910Z,17.63
2023-04-17T11:52:00.284Z,18.45
2023-04-17T11:54:29.652Z,17.65
2023-04-17T11:57:03.143Z,21.02
2023-04-17T11:59:32.277Z,20.60
2023-04-17T12:02:02.027Z,18.10
2023-04-17T12:04:34.262Z,18.30
2023-04-17T12:07:03.068Z,16.88
2023-04-17T12:09:32.460Z,12.77
2023-04-17T12:12:01.957Z,17.45
2023-04-17T12:14:30.214Z,15.80
2023-04-17T12:16:58.331Z,13.85
2023-04-17T12:19:28.106Z,13.48
2023-04-17T12:21:59.341Z,11.50
2023-04-17T12:24:27.680Z,10.90
2023-04-17T12:26:56.873Z,11.30
2023-04-17T12:29:40.469Z,11.80
2023-04-17T12:32:12.679Z,8.35
2023-04-17T12:34:43.460Z,7.03
2023-04-17T12:37:12.998Z,7.93
2023-04-17T12:39:41.274Z,8.13
2023-04-17T12:42:10.065Z,7.03
2023-04-17T12:44:39.742Z,9.40
2023-04-17T12:47:08.089Z,12.70
2023-04-17T12:49:36.266Z,8.93
2023-04-17T12:52:04.465Z,8.18
2023-04-17T12:54:33.989Z,8.73
2023-04-17T12:57:03.054Z,7.43
2023-04-17T12:59:31.179Z,11.00
2023-04-17T13:01:59.433Z,9.02
2023-04-17T13:04:27.884Z,8.45
2023-04-17T13:06:56.218Z,7.65
2023-04-17T13:09:24.415Z,8.80
2023-04-17T13:11:54.267Z,8.48
2023-04-17T13:14:22.472Z,7.68
2023-04-17T13:16:54.466Z,7.43
2023-04-17T13:19:22.824Z,9.90
2023-04-17T13:21:56.020Z,9.60
2023-04-17T13:24:24.511Z,9.18
2023-04-17T13:26:57.869Z,10.77
2023-04-17T13:29:26.805Z,7.88
2023-04-17T13:31:55.074Z,11.15
2023-04-17T13:34:23.252Z,9.40
2023-04-17T13:36:51.668Z,8.00
2023-04-17T13:39:21.279Z,7.72
2023-04-17T13:41:49.702Z,7.28
2023-04-17T13:44:19.786Z,8.45
2023-04-17T13:46:48.754Z,10.18
2023-04-17T13:49:17.207Z,9.40
2023-04-17T13:51:46.037Z,10.48
2023-04-17T13:54:15.247Z,9.05
2023-04-17T13:56:43.726Z,9.50
2023-04-17T13:59:12.305Z,11.93
2023-04-17T14:01:42.214Z,12.93
2023-04-17T14:04:12.011Z,11.93
2023-04-17T14:06:40.418Z,12.32
2023-04-17T14:09:08.636Z,9.32
2023-04-17T14:11:37.224Z,10.10
2023-04-17T14:14:06.178Z,10.48
2023-04-17T14:16:34.898Z,7.45
2023-04-17T14:19:13.308Z,7.65
2023-04-17T14:22:01.457Z,6.47
2023-04-17T14:24:29.987Z,9.43
2023-04-17T14:26:58.274Z,10.18
2023-04-17T14:29:26.618Z,7.30
2023-04-17T14:31:54.918Z,8.57
2023-04-17T14:34:25.082Z,10.55
2023-04-17T14:36:53.264Z,14.32
2023-04-17T14:39:21.521Z,10.45
2023-04-17T14:41:49.662Z,6.15
2023-04-17T14:44:17.874Z,8.93
2023-04-17T14:46:46.038Z,9.23
2023-04-17T14:49:14.434Z,8.52
2023-04-17T14:51:44.014Z,8.00
2023-04-17T14:54:12.259Z,9.38
2023-04-17T14:56:40.991Z,8.50
2023-04-17T14:59:10.082Z,7.80
2023-04-17T15:01:38.401Z,9.32
2023-04-17T15:04:06.885Z,10.02
2023-04-17T15:06:35.589Z,8.07
2023-04-17T15:09:05.876Z,7.38
2023-04-17T15:11:34.080Z,7.70
2023-04-17T15:14:02.328Z,9.45
2023-04-17T15:16:31.883Z,6.43
2023-04-17T15:19:02.661Z,6.88
2023-04-17T15:21:31.244Z,7.65
2023-04-17T15:23:59.310Z,12.93
2023-04-17T15:26:28.891Z,11.43
2023-04-17T15:28:57.128Z,12.48
2023-04-17T15:31:25.419Z,20.13
2023-04-17T15:33:54.005Z,12.75
2023-04-17T15:36:24.563Z,8.93
2023-04-17T15:38:52.865Z,11.52
2023-04-17T15:41:21.411Z,9.00
2023-04-17T15:43:51.207Z,8.43
2023-04-17T15:46:19.565Z,10.65
2023-04-17T15:48:57.701Z,7.35
2023-04-17T15:51:36.416Z,7.50
2023-04-17T15:54:04.685Z,7.57
2023-04-17T15:56:32.718Z,13.10
2023-04-17T15:59:02.270Z,10.45
2023-04-17T16:01:30.460Z,10.45
2023-04-17T16:03:58.915Z,11.40
2023-04-17T16:06:27.715Z,10.50
2023-04-17T16:08:55.849Z,11.20
2023-04-17T16:11:24.068Z,11.25
2023-04-17T16:13:52.195Z,9.82
2023-04-17T16:16:21.787Z,9.50
2023-04-17T16:18:49.897Z,13.40
2023-04-17T16:21:18.069Z,10.43
2023-04-17T16:23:46.327Z,11.85
2023-04-17T16:26:15.720Z,9.88
2023-04-17T16:28:45.814Z,9.80
2023-04-17T16:31:16.437Z,9.55
2023-04-17T16:33:46.932Z,16.10
2023-04-17T16:36:15.120Z,17.87
2023-04-17T16:38:43.492Z,18.05
2023-04-17T16:41:11.660Z,18.20
2023-04-17T16:43:41.999Z,13.13
2023-04-17T16:46:20.663Z,12.60
2023-04-17T16:48:52.266Z,10.05
2023-04-17T16:51:21.246Z,9.60
2023-04-17T16:53:49.436Z,11.27
2023-04-17T16:56:18.073Z,8.40
2023-04-17T16:58:46.293Z,10.27
2023-04-17T17:01:14.949Z,10.87
2023-04-17T17:03:43.462Z,10.47
2023-04-17T17:06:13.239Z,10.77
2023-04-17T17:08:46.670Z,9.60
2023-04-17T17:11:15.377Z,11.13
2023-04-17T17:13:43.806Z,11.03
2023-04-17T17:16:12.208Z,12.13
2023-04-17T17:18:40.615Z,10.77
2023-04-17T17:21:08.716Z,10.17
2023-04-17T17:23:39.142Z,13.03
2023-04-17T17:26:07.573Z,13.13
2023-04-17T17:28:36.252Z,14.83
2023-04-17T17:31:07.617Z,14.87
2023-04-17T17:33:37.063Z,13.67
2023-04-17T17:36:05.684Z,12.33
2023-04-17T17:38:33.841Z,13.10
2023-04-17T17:41:04.463Z,14.10
2023-04-17T17:43:32.605Z,17.93
2023-04-17T17:46:00.965Z,11.03
2023-04-17T17:48:29.036Z,57.90
2023-04-17T17:50:58.576Z,23.67
2023-04-17T17:53:27.284Z,28.37
2023-04-17T17:55:57.140Z,23.47
2023-04-17T17:58:27.838Z,25.80
2023-04-17T18:00:55.895Z,24.43
2023-04-17T18:03:24.224Z,24.30
2023-04-17T18:05:52.921Z,22.10
2023-04-17T18:08:21.061Z,18.97
2023-04-17T18:10:49.206Z,17.17
2023-04-17T18:13:17.298Z,17.70
2023-04-17T18:15:47.190Z,18.80
2023-04-17T18:18:15.411Z,16.83
2023-04-17T18:20:43.557Z,17.23
2023-04-17T18:23:11.966Z,19.60
2023-04-17T18:25:40.705Z,16.70
2023-04-17T18:28:08.799Z,20.03
2023-04-17T18:30:40.104Z,17.10
2023-04-17T18:33:10.027Z,18.43
2023-04-17T18:35:38.338Z,25.27
2023-04-17T18:38:07.119Z,28.57
2023-04-17T18:40:36.523Z,23.00
2023-04-17T18:43:07.001Z,22.13
2023-04-17T18:45:36.437Z,21.37
2023-04-17T18:48:04.787Z,24.00
2023-04-17T18:50:34.332Z,22.30
2023-04-17T18:53:03.408Z,21.80
2023-04-17T18:55:38.412Z,24.03
2023-04-17T18:58:12.667Z,26.53
2023-04-17T19:00:45.423Z,26.37
2023-04-17T19:03:16.130Z,26.87
2023-04-17T19:05:46.717Z,25.87
2023-04-17T19:08:16.240Z,28.97
2023-04-17T19:10:46.256Z,28.73
2023-04-17T19:13:15.913Z,36.63
2023-04-17T19:15:44.120Z,30.73
2023-04-17T19:18:12.258Z,32.27
2023-04-17T19:20:42.708Z,32.90
2023-04-17T19:23:13.071Z,30.70
2023-04-17T19:25:43.084Z,30.30
2023-04-17T19:28:11.522Z,27.70
2023-04-17T19:30:40.645Z,29.80
2023-04-17T19:33:09.560Z,32.23
2023-04-17T19:35:37.884Z,34.13
2023-04-17T19:38:07.207Z,34.03
2023-04-17T19:40:36.985Z,31.67
2023-04-17T19:43:06.207Z,35.07
2023-04-17T19:45:36.623Z,33.77
2023-04-17T19:48:07.334Z,28.73
2023-04-17T19:50:35.612Z,27.13
2023-04-17T19:53:04.094Z,28.17
2023-04-17T19:55:32.210Z,25.43
2023-04-17T19:58:02.042Z,27.67
2023-04-17T20:00:31.681Z,24.57
2023-04-17T20:03:00.362Z,25.77
2023-04-17T20:05:28.998Z,28.57
2023-04-17T20:07:58.674Z,25.87
2023-04-17T20:10:27.975Z,27.80
2023-04-17T20:12:56.388Z,30.13
2023-04-17T20:15:26.054Z,28.10
2023-04-17T20:17:56.649Z,28.47
2023-04-17T20:20:24.966Z,32.77
2023-04-17T20:22:53.261Z,28.07
2023-04-17T20:25:21.940Z,35.30
2023-04-17T20:27:50.039Z,37.63
2023-04-17T20:30:20.297Z,33.70
2023-04-17T20:32:50.350Z,34.43
2023-04-17T20:35:21.035Z,29.50
2023-04-17T20:37:49.188Z,29.50
2023-04-17T20:40:17.525Z,25.90
2023-04-17T20:42:47.640Z,29.90
2023-04-17T20:45:16.456Z,28.47
2023-04-17T20:47:56.676Z,30.07
2023-04-17T20:50:26.831Z,26.60
2023-04-17T20:52:54.926Z,25.70
2023-04-17T20:55:24.285Z,25.87
2023-04-17T20:57:52.551Z,20.00
2023-04-17T21:00:21.520Z,20.47
2023-04-17T21:02:49.761Z,20.80
2023-04-17T21:05:19.341Z,19.57
2023-04-17T21:07:51.298Z,16.33
2023-04-17T21:10:19.992Z,16.23
2023-04-17T21:12:48.212Z,17.43
2023-04-17T21:15:16.372Z,15.33
2023-04-17T21:17:47.660Z,19.57
2023-04-17T21:20:15.974Z,20.40
2023-04-17T21:22:43.996Z,22.63
2023-04-17T21:25:13.489Z,19.00
2023-04-17T21:27:41.873Z,22.93
2023-04-17T21:30:10.749Z,21.53
2023-04-17T21:32:40.328Z,19.43
2023-04-17T21:35:09.181Z,20.10
2023-04-17T21:37:37.271Z,23.00
2023-04-17T21:40:06.100Z,20.43
2023-04-17T21:42:36.080Z,19.63
2023-04-17T21:45:04.211Z,17.70
2023-04-17T21:47:32.304Z,18.27
2023-04-17T21:50:00.599Z,17.17
2023-04-17T21:52:28.702Z,18.50
2023-04-17T21:55:03.086Z,14.50
2023-04-17T21:57:31.848Z,15.43
2023-04-17T22:00:01.535Z,14.40
2023-04-17T22:02:29.831Z,19.33
2023-04-17T22:04:58.173Z,14.97
2023-04-17T22:07:26.369Z,15.67
2023-04-17T22:09:54.555Z,15.13
2023-04-17T22:12:22.637Z,15.03
2023-04-17T22:14:50.742Z,14.47
2023-04-17T22:17:20.309Z,16.57
2023-04-17T22:19:48.437Z,15.30
2023-04-17T22:22:16.509Z,14.07
2023-04-17T22:24:44.674Z,15.10
2023-04-17T22:27:13.131Z,15.47
2023-04-17T22:29:41.268Z,15.93
2023-04-17T22:32:09.376Z,15.43
2023-04-17T22:34:41.202Z,14.57
2023-04-17T22:37:10.551Z,13.93
2023-04-17T22:39:38.635Z,15.63
2023-04-17T22:42:06.741Z,15.40
2023-04-17T22:44:34.802Z,13.50
2023-04-17T22:47:02.852Z,15.13
2023-04-17T22:49:30.970Z,14.00
2023-04-17T22:52:00.487Z,14.10
2023-04-17T22:54:28.649Z,16.03
2023-04-17T22:56:56.731Z,17.10
2023-04-17T22:59:24.830Z,15.77
2023-04-17T23:01:53.878Z,14.73
2023-04-17T23:04:22.370Z,16.50
2023-04-17T23:06:50.655Z,16.77
2023-04-17T23:09:20.153Z,23.37
2023-04-17T23:11:48.231Z,19.83
2023-04-17T23:14:16.432Z,19.00
2023-04-17T23:16:44.491Z,18.93
2023-04-17T23:19:12.609Z,22.60
2023-04-17T23:21:40.748Z,21.03
2023-04-17T23:24:08.912Z,24.03
2023-04-17T23:26:38.490Z,24.27
2023-04-17T23:29:06.680Z,20.90
2023-04-17T23:31:34.760Z,23.77
2023-04-17T23:34:02.815Z,21.00
2023-04-17T23:36:30.808Z,20.33
2023-04-17T23:38:58.871Z,20.90
2023-04-17T23:41:28.084Z,23.60
2023-04-17T23:43:57.732Z,24.00
2023-04-17T23:46:25.854Z,28.60
2023-04-17T23:48:54.061Z,24.47
2023-04-17T23:51:22.182Z,24.77
2023-04-17T23:53:50.727Z,27.73
2023-04-17T23:56:22.210Z,26.60
2023-04-17T23:58:50.423Z,27.03
